sensor_id;sensor_type;location;lat;lon;timestamp;pressure;altitude;pressure_sealevel;temperature;humidity
41078;BME280;26823;42.662;23.352;2023-01-25T00:15:22;95870.56;;;0.52;95.76
41078;BME280;26823;42.662;23.352;2023-01-25T00:17:53;95849.41;;;0.07;96.78
41078;BME280;26823;42.662;23.352;2023-01-25T00:20:19;95819.34;;;-0.08;97.73
41078;BME280;26823;42.662;23.352;2023-01-25T00:22:44;95862.16;;;0.12;98.34
41078;BME280;26823;42.662;23.352;2023-01-25T00:25:09;95849.06;;;-0.05;98.66
41078;BME280;26823;42.662;23.352;2023-01-25T00:27:35;95872.13;;;0.25;98.65
41078;BME280;26823;42.662;23.352;2023-01-25T00:30:00;95856.19;;;0.10;98.13
41078;BME280;26823;42.662;23.352;2023-01-25T00:35:22;95859.28;;;-0.38;100.00
41078;BME280;26823;42.662;23.352;2023-01-25T00:37:51;95857.66;;;-0.03;100.00
41078;BME280;26823;42.662;23.352;2023-01-25T00:40:17;95855.81;;;0.13;100.00
41078;BME280;26823;42.662;23.352;2023-01-25T00:42:42;95859.00;;;-0.13;100.00
41078;BME280;26823;42.662;23.352;2023-01-25T00:45:10;95868.09;;;0.14;99.73
41078;BME280;26823;42.662;23.352;2023-01-25T00:47:36;95858.22;;;0.08;98.49
41078;BME280;26823;42.662;23.352;2023-01-25T00:50:01;95863.84;;;-0.02;98.89
41078;BME280;26823;42.662;23.352;2023-01-25T00:52:27;95867.66;;;0.10;98.08
41078;BME280;26823;42.662;23.352;2023-01-25T00:54:53;95853.94;;;-0.08;98.07
41078;BME280;26823;42.662;23.352;2023-01-25T00:57:18;95871.38;;;0.31;97.92
41078;BME280;26823;42.662;23.352;2023-01-25T00:59:44;95864.94;;;0.25;96.46
41078;BME280;26823;42.662;23.352;2023-01-25T01:02:13;95857.66;;;-0.03;95.92
41078;BME280;26823;42.662;23.352;2023-01-25T01:04:39;95862.72;;;-0.08;96.19
41078;BME280;26823;42.662;23.352;2023-01-25T01:07:05;95866.56;;;0.05;95.47
41078;BME280;26823;42.662;23.352;2023-01-25T01:09:31;95861.19;;;-0.02;95.91
41078;BME280;26823;42.662;23.352;2023-01-25T01:11:56;95864.16;;;0.10;95.44
41078;BME280;26823;42.662;23.352;2023-01-25T01:14:22;95867.88;;;-0.06;95.58
41078;BME280;26823;42.662;23.352;2023-01-25T01:16:47;95864.94;;;0.25;95.65
41078;BME280;26823;42.662;23.352;2023-01-25T01:19:13;95855.59;;;0.29;94.32
41078;BME280;26823;42.662;23.352;2023-01-25T01:21:39;95863.78;;;0.50;93.82
41078;BME280;26823;42.662;23.352;2023-01-25T01:24:04;95861.16;;;0.13;93.93
41078;BME280;26823;42.662;23.352;2023-01-25T01:26:30;95856.13;;;0.03;94.46
41078;BME280;26823;42.662;23.352;2023-01-25T01:28:57;95845.88;;;-0.15;95.99
41078;BME280;26823;42.662;23.352;2023-01-25T01:31:23;95854.09;;;0.05;95.72
41078;BME280;26823;42.662;23.352;2023-01-25T01:33:53;95858.78;;;0.03;96.66
41078;BME280;26823;42.662;23.352;2023-01-25T01:36:21;95854.88;;;0.21;95.87
41078;BME280;26823;42.662;23.352;2023-01-25T01:38:47;95843.00;;;0.38;94.62
41078;BME280;26823;42.662;23.352;2023-01-25T01:41:14;95850.19;;;0.23;94.55
41078;BME280;26823;42.662;23.352;2023-01-25T01:43:39;95846.91;;;0.42;95.10
41078;BME280;26823;42.662;23.352;2023-01-25T01:46:36;95849.38;;;0.44;94.02
41078;BME280;26823;42.662;23.352;2023-01-25T01:49:13;95837.53;;;0.46;93.42
41078;BME280;26823;42.662;23.352;2023-01-25T01:51:48;95832.47;;;0.52;92.93
41078;BME280;26823;42.662;23.352;2023-01-25T01:54:22;95840.34;;;0.60;93.05
41078;BME280;26823;42.662;23.352;2023-01-25T01:56:51;95845.44;;;0.18;94.84
41078;BME280;26823;42.662;23.352;2023-01-25T01:59:21;95837.28;;;0.41;94.62
41078;BME280;26823;42.662;23.352;2023-01-25T02:01:48;95836.28;;;0.42;94.54
41078;BME280;26823;42.662;23.352;2023-01-25T02:04:15;95841.78;;;0.19;95.30
41078;BME280;26823;42.662;23.352;2023-01-25T02:06:58;95842.25;;;0.08;95.96
41078;BME280;26823;42.662;23.352;2023-01-25T02:09:28;95838.28;;;0.40;95.50
41078;BME280;26823;42.662;23.352;2023-01-25T02:11:55;95837.94;;;0.43;93.62
41078;BME280;26823;42.662;23.352;2023-01-25T02:14:21;95836.84;;;0.38;93.34
41078;BME280;26823;42.662;23.352;2023-01-25T02:16:54;95829.38;;;0.11;95.08
41078;BME280;26823;42.662;23.352;2023-01-25T02:22:21;95833.38;;;0.01;95.49
41078;BME280;26823;42.662;23.352;2023-01-25T02:25:03;95836.22;;;-0.01;95.05
41078;BME280;26823;42.662;23.352;2023-01-25T02:27:30;95827.63;;;-0.33;95.78
41078;BME280;26823;42.662;23.352;2023-01-25T02:29:56;95843.94;;;-0.06;96.29
41078;BME280;26823;42.662;23.352;2023-01-25T02:32:22;95825.81;;;-0.18;96.01
41078;BME280;26823;42.662;23.352;2023-01-25T02:34:47;95821.94;;;-0.15;96.19
41078;BME280;26823;42.662;23.352;2023-01-25T02:37:13;95833.41;;;-0.14;95.79
41078;BME280;26823;42.662;23.352;2023-01-25T02:39:40;95829.44;;;-0.04;97.15
41078;BME280;26823;42.662;23.352;2023-01-25T02:42:05;95837.72;;;0.23;95.98
41078;BME280;26823;42.662;23.352;2023-01-25T02:44:31;95843.88;;;0.45;95.45
41078;BME280;26823;42.662;23.352;2023-01-25T02:46:56;95819.28;;;0.43;94.41
41078;BME280;26823;42.662;23.352;2023-01-25T02:49:22;95821.84;;;0.15;94.38
41078;BME280;26823;42.662;23.352;2023-01-25T02:51:50;95833.19;;;0.02;95.46
41078;BME280;26823;42.662;23.352;2023-01-25T02:54:18;95827.72;;;-0.11;95.70
41078;BME280;26823;42.662;23.352;2023-01-25T02:56:44;95831.94;;;-0.17;95.96
41078;BME280;26823;42.662;23.352;2023-01-25T02:59:10;95812.59;;;-0.11;96.07
41078;BME280;26823;42.662;23.352;2023-01-25T03:01:38;95839.19;;;-0.26;96.40
41078;BME280;26823;42.662;23.352;2023-01-25T03:04:05;95835.88;;;-0.13;96.95
41078;BME280;26823;42.662;23.352;2023-01-25T03:06:31;95837.72;;;-0.13;96.50
41078;BME280;26823;42.662;23.352;2023-01-25T03:08:57;95838.72;;;-0.14;97.70
41078;BME280;26823;42.662;23.352;2023-01-25T03:11:23;95799.66;;;-0.14;97.62
41078;BME280;26823;42.662;23.352;2023-01-25T03:13:49;95830.28;;;-0.18;97.88
41078;BME280;26823;42.662;23.352;2023-01-25T03:16:14;95838.06;;;0.20;97.57
41078;BME280;26823;42.662;23.352;2023-01-25T03:18:40;95826.09;;;0.09;95.71
41078;BME280;26823;42.662;23.352;2023-01-25T03:21:12;95828.13;;;0.07;95.74
41078;BME280;26823;42.662;23.352;2023-01-25T03:23:39;95830.78;;;0.07;96.27
41078;BME280;26823;42.662;23.352;2023-01-25T03:26:06;95834.94;;;-0.05;97.04
41078;BME280;26823;42.662;23.352;2023-01-25T03:28:32;95835.13;;;-0.07;96.59
41078;BME280;26823;42.662;23.352;2023-01-25T03:30:58;95815.72;;;-0.22;97.07
41078;BME280;26823;42.662;23.352;2023-01-25T03:33:23;95829.81;;;-0.07;96.69
41078;BME280;26823;42.662;23.352;2023-01-25T03:35:53;95819.34;;;-0.08;96.51
41078;BME280;26823;42.662;23.352;2023-01-25T03:38:18;95833.78;;;-0.18;97.00
41078;BME280;26823;42.662;23.352;2023-01-25T03:40:45;95837.25;;;-0.17;96.90
41078;BME280;26823;42.662;23.352;2023-01-25T03:43:10;95824.97;;;-0.18;96.68
41078;BME280;26823;42.662;23.352;2023-01-25T03:45:35;95832.09;;;-0.04;96.83
41078;BME280;26823;42.662;23.352;2023-01-25T03:48:01;95831.88;;;-0.24;96.55
41078;BME280;26823;42.662;23.352;2023-01-25T03:50:26;95822.03;;;-0.23;96.59
41078;BME280;26823;42.662;23.352;2023-01-25T03:53:01;95824.63;;;-0.15;97.42
41078;BME280;26823;42.662;23.352;2023-01-25T03:55:34;95812.72;;;-0.34;97.22
41078;BME280;26823;42.662;23.352;2023-01-25T03:58:00;95824.97;;;-0.18;97.05
41078;BME280;26823;42.662;23.352;2023-01-25T04:00:25;95817.84;;;-0.32;97.17
41078;BME280;26823;42.662;23.352;2023-01-25T04:02:51;95765.84;;;-0.72;97.49
41078;BME280;26823;42.662;23.352;2023-01-25T04:05:17;95800.16;;;-0.40;97.76
41078;BME280;26823;42.662;23.352;2023-01-25T04:07:42;95809.94;;;-0.26;98.13
41078;BME280;26823;42.662;23.352;2023-01-25T04:10:08;95770.50;;;-0.59;97.92
41078;BME280;26823;42.662;23.352;2023-01-25T04:12:33;95800.25;;;-0.34;97.38
41078;BME280;26823;42.662;23.352;2023-01-25T04:14:59;95803.09;;;-0.35;97.16
41078;BME280;26823;42.662;23.352;2023-01-25T04:17:24;95815.66;;;-0.29;97.64
41078;BME280;26823;42.662;23.352;2023-01-25T04:19:50;95811.97;;;-0.28;97.66
41078;BME280;26823;42.662;23.352;2023-01-25T04:22:15;95811.88;;;-0.20;97.47
41078;BME280;26823;42.662;23.352;2023-01-25T04:24:41;95816.31;;;-0.42;97.50
41078;BME280;26823;42.662;23.352;2023-01-25T04:27:07;95811.06;;;-0.35;97.88
41078;BME280;26823;42.662;23.352;2023-01-25T04:29:33;95789.88;;;-0.43;97.44
41078;BME280;26823;42.662;23.352;2023-01-25T04:31:59;95799.25;;;-0.47;97.45
41078;BME280;26823;42.662;23.352;2023-01-25T04:34:24;95813.81;;;-0.43;97.13
41078;BME280;26823;42.662;23.352;2023-01-25T04:36:50;95806.88;;;-0.59;97.49
41078;BME280;26823;42.662;23.352;2023-01-25T04:39:15;95810.63;;;-0.54;97.76
41078;BME280;26823;42.662;23.352;2023-01-25T04:41:41;95805.84;;;-0.43;97.53
41078;BME280;26823;42.662;23.352;2023-01-25T04:44:06;95827.28;;;-0.15;97.39
41078;BME280;26823;42.662;23.352;2023-01-25T04:46:31;95832.03;;;0.11;96.93
41078;BME280;26823;42.662;23.352;2023-01-25T04:48:57;95833.19;;;0.02;95.24
41078;BME280;26823;42.662;23.352;2023-01-25T04:51:22;95822.28;;;-0.03;95.10
41078;BME280;26823;42.662;23.352;2023-01-25T04:53:47;95751.63;;;-0.79;94.13
41078;BME280;26823;42.662;23.352;2023-01-25T04:56:13;95825.94;;;-0.56;95.20
41078;BME280;26823;42.662;23.352;2023-01-25T04:58:38;95813.91;;;-0.37;95.58
41078;BME280;26823;42.662;23.352;2023-01-25T05:01:04;95825.03;;;-0.48;94.12
41078;BME280;26823;42.662;23.352;2023-01-25T05:03:29;95827.94;;;-0.58;95.01
41078;BME280;26823;42.662;23.352;2023-01-25T05:05:55;95812.66;;;-0.71;95.87
41078;BME280;26823;42.662;23.352;2023-01-25T05:08:20;95809.34;;;-0.73;95.22
41078;BME280;26823;42.662;23.352;2023-01-25T05:10:45;95803.03;;;-0.57;94.81
41078;BME280;26823;42.662;23.352;2023-01-25T05:13:11;95806.16;;;-0.53;94.19
41078;BME280;26823;42.662;23.352;2023-01-25T05:15:36;95806.50;;;-0.56;94.22
41078;BME280;26823;42.662;23.352;2023-01-25T05:18:02;95810.88;;;-0.48;94.18
41078;BME280;26823;42.662;23.352;2023-01-25T05:20:28;95801.72;;;-0.46;93.82
41078;BME280;26823;42.662;23.352;2023-01-25T05:22:53;95811.53;;;-0.46;94.19
41078;BME280;26823;42.662;23.352;2023-01-25T05:25:20;95803.72;;;-0.33;93.61
41078;BME280;26823;42.662;23.352;2023-01-25T05:28:05;95822.31;;;-0.18;93.73
41078;BME280;26823;42.662;23.352;2023-01-25T05:30:32;95804.16;;;-0.14;92.82
41078;BME280;26823;42.662;23.352;2023-01-25T05:32:57;95816.91;;;-0.25;92.30
41078;BME280;26823;42.662;23.352;2023-01-25T05:35:23;95823.81;;;-0.45;92.56
41078;BME280;26823;42.662;23.352;2023-01-25T05:37:48;95811.63;;;-0.55;93.51
41078;BME280;26823;42.662;23.352;2023-01-25T05:40:14;95814.81;;;-0.44;93.44
41078;BME280;26823;42.662;23.352;2023-01-25T05:42:39;95819.59;;;-0.40;92.50
41078;BME280;26823;42.662;23.352;2023-01-25T05:45:06;95828.41;;;-0.39;92.38
41078;BME280;26823;42.662;23.352;2023-01-25T05:47:32;95812.09;;;-0.51;91.80
41078;BME280;26823;42.662;23.352;2023-01-25T05:49:57;95831.69;;;-0.37;91.72
41078;BME280;26823;42.662;23.352;2023-01-25T05:52:23;95809.53;;;-0.74;91.54
41078;BME280;26823;42.662;23.352;2023-01-25T05:54:48;95821.97;;;-0.60;92.58
41078;BME280;26823;42.662;23.352;2023-01-25T05:57:14;95834.00;;;-0.34;92.07
41078;BME280;26823;42.662;23.352;2023-01-25T05:59:40;95832.59;;;-0.15;91.60
41078;BME280;26823;42.662;23.352;2023-01-25T06:02:05;95822.84;;;-0.08;90.23
41078;BME280;26823;42.662;23.352;2023-01-25T06:04:31;95819.06;;;0.02;89.98
41078;BME280;26823;42.662;23.352;2023-01-25T06:06:56;95821.84;;;-0.22;90.25
41078;BME280;26823;42.662;23.352;2023-01-25T06:09:22;95801.19;;;-0.41;90.65
41078;BME280;26823;42.662;23.352;2023-01-25T06:11:48;95821.72;;;-0.35;91.54
41078;BME280;26823;42.662;23.352;2023-01-25T06:14:13;95839.72;;;-0.15;90.71
41078;BME280;26823;42.662;23.352;2023-01-25T06:16:39;95796.28;;;-0.23;90.60
41078;BME280;26823;42.662;23.352;2023-01-25T06:19:05;95836.28;;;0.06;89.37
41078;BME280;26823;42.662;23.352;2023-01-25T06:21:31;95833.25;;;0.09;89.91
41078;BME280;26823;42.662;23.352;2023-01-25T06:23:56;95835.75;;;0.10;88.20
41078;BME280;26823;42.662;23.352;2023-01-25T06:26:22;95835.63;;;0.19;88.50
41078;BME280;26823;42.662;23.352;2023-01-25T06:28:47;95840.47;;;0.15;88.30
41078;BME280;26823;42.662;23.352;2023-01-25T06:31:15;95834.13;;;-0.06;88.67
41078;BME280;26823;42.662;23.352;2023-01-25T06:33:42;95815.19;;;-0.32;89.97
41078;BME280;26823;42.662;23.352;2023-01-25T06:36:13;95841.13;;;-0.20;90.08
41078;BME280;26823;42.662;23.352;2023-01-25T06:38:39;95812.94;;;-0.51;91.42
41078;BME280;26823;42.662;23.352;2023-01-25T06:41:06;95831.81;;;-0.45;91.37
41078;BME280;26823;42.662;23.352;2023-01-25T06:43:33;95836.06;;;-0.29;91.56
41078;BME280;26823;42.662;23.352;2023-01-25T06:46:00;95833.53;;;-0.23;91.02
41078;BME280;26823;42.662;23.352;2023-01-25T06:48:29;95817.91;;;-0.11;91.31
41078;BME280;26823;42.662;23.352;2023-01-25T06:50:57;95829.22;;;0.13;89.71
41078;BME280;26823;42.662;23.352;2023-01-25T06:53:27;95837.56;;;0.10;89.59
41078;BME280;26823;42.662;23.352;2023-01-25T06:56:01;95833.59;;;-0.16;89.51
41078;BME280;26823;42.662;23.352;2023-01-25T06:58:28;95828.22;;;-0.53;90.94
41078;BME280;26823;42.662;23.352;2023-01-25T07:00:59;95839.69;;;-0.67;92.73
41078;BME280;26823;42.662;23.352;2023-01-25T07:03:25;95833.72;;;-0.69;92.87
41078;BME280;26823;42.662;23.352;2023-01-25T07:05:59;95839.66;;;-0.37;92.60
41078;BME280;26823;42.662;23.352;2023-01-25T07:08:24;95837.38;;;-0.40;92.21
41078;BME280;26823;42.662;23.352;2023-01-25T07:10:54;95826.09;;;-0.42;91.73
41078;BME280;26823;42.662;23.352;2023-01-25T07:13:20;95836.91;;;-0.29;91.87
41078;BME280;26823;42.662;23.352;2023-01-25T07:15:54;95835.06;;;-0.13;91.08
41078;BME280;26823;42.662;23.352;2023-01-25T07:18:20;95836.91;;;-0.29;91.14
41078;BME280;26823;42.662;23.352;2023-01-25T07:20:46;95837.44;;;-0.04;91.39
41078;BME280;26823;42.662;23.352;2023-01-25T07:23:11;95832.94;;;0.19;90.27
41078;BME280;26823;42.662;23.352;2023-01-25T07:25:36;95838.97;;;0.27;90.31
41078;BME280;26823;42.662;23.352;2023-01-25T07:28:02;95838.63;;;-0.06;90.01
41078;BME280;26823;42.662;23.352;2023-01-25T07:30:27;95819.63;;;-0.03;89.39
41078;BME280;26823;42.662;23.352;2023-01-25T07:32:53;95853.72;;;0.08;89.96
41078;BME280;26823;42.662;23.352;2023-01-25T07:35:19;95851.03;;;0.23;89.37
41078;BME280;26823;42.662;23.352;2023-01-25T07:37:45;95845.41;;;0.33;88.99
41078;BME280;26823;42.662;23.352;2023-01-25T07:40:10;95828.75;;;0.46;88.76
41078;BME280;26823;42.662;23.352;2023-01-25T07:42:37;95827.03;;;0.38;87.63
41078;BME280;26823;42.662;23.352;2023-01-25T07:45:03;95834.38;;;-0.01;89.45
41078;BME280;26823;42.662;23.352;2023-01-25T07:47:28;95827.13;;;0.08;90.02
41078;BME280;26823;42.662;23.352;2023-01-25T07:49:54;95854.38;;;0.10;90.51
41078;BME280;26823;42.662;23.352;2023-01-25T07:52:19;95844.16;;;0.14;90.98
41078;BME280;26823;42.662;23.352;2023-01-25T07:54:44;95841.69;;;0.12;90.35
41078;BME280;26823;42.662;23.352;2023-01-25T07:57:11;95847.69;;;-0.01;90.79
41078;BME280;26823;42.662;23.352;2023-01-25T07:59:36;95843.03;;;-0.13;91.11
41078;BME280;26823;42.662;23.352;2023-01-25T08:02:02;95849.88;;;-0.04;91.92
41078;BME280;26823;42.662;23.352;2023-01-25T08:04:27;95805.63;;;-0.27;91.91
41078;BME280;26823;42.662;23.352;2023-01-25T08:06:53;95835.78;;;-0.05;91.92
41078;BME280;26823;42.662;23.352;2023-01-25T08:09:18;95830.00;;;-0.08;91.53
41078;BME280;26823;42.662;23.352;2023-01-25T08:11:44;95834.34;;;0.14;91.14
41078;BME280;26823;42.662;23.352;2023-01-25T08:14:11;95835.41;;;0.20;90.60
41078;BME280;26823;42.662;23.352;2023-01-25T08:16:37;95834.31;;;0.51;90.12
41078;BME280;26823;42.662;23.352;2023-01-25T08:19:03;95843.25;;;0.65;90.04
41078;BME280;26823;42.662;23.352;2023-01-25T08:21:30;95835.97;;;0.30;90.60
41078;BME280;26823;42.662;23.352;2023-01-25T08:23:57;95845.75;;;0.08;90.97
41078;BME280;26823;42.662;23.352;2023-01-25T08:26:23;95834.06;;;0.24;90.99
41078;BME280;26823;42.662;23.352;2023-01-25T08:28:49;95838.78;;;0.51;90.30
41078;BME280;26823;42.662;23.352;2023-01-25T08:31:21;95816.44;;;0.23;90.78
41078;BME280;26823;42.662;23.352;2023-01-25T08:33:47;95830.09;;;0.20;91.66
41078;BME280;26823;42.662;23.352;2023-01-25T08:36:14;95843.06;;;0.45;91.97
41078;BME280;26823;42.662;23.352;2023-01-25T08:38:41;95847.38;;;0.68;90.72
41078;BME280;26823;42.662;23.352;2023-01-25T08:41:17;95842.09;;;0.53;90.73
41078;BME280;26823;42.662;23.352;2023-01-25T08:43:44;95817.88;;;0.47;90.20
41078;BME280;26823;42.662;23.352;2023-01-25T08:46:11;95836.72;;;0.68;90.96
41078;BME280;26823;42.662;23.352;2023-01-25T08:48:38;95835.25;;;0.65;90.84
41078;BME280;26823;42.662;23.352;2023-01-25T08:51:03;95818.78;;;0.33;91.86
41078;BME280;26823;42.662;23.352;2023-01-25T08:53:30;95825.72;;;0.56;92.20
41078;BME280;26823;42.662;23.352;2023-01-25T08:56:02;95835.72;;;0.69;91.50
41078;BME280;26823;42.662;23.352;2023-01-25T08:58:28;95810.66;;;0.63;90.61
41078;BME280;26823;42.662;23.352;2023-01-25T09:01:03;95829.25;;;0.56;91.08
41078;BME280;26823;42.662;23.352;2023-01-25T09:03:29;95779.72;;;0.19;91.38
41078;BME280;26823;42.662;23.352;2023-01-25T09:05:55;95825.38;;;0.37;92.05
41078;BME280;26823;42.662;23.352;2023-01-25T09:08:20;95808.94;;;0.12;93.01
41078;BME280;26823;42.662;23.352;2023-01-25T09:10:46;95832.78;;;0.42;93.67
41078;BME280;26823;42.662;23.352;2023-01-25T09:13:11;95831.59;;;0.66;92.27
41078;BME280;26823;42.662;23.352;2023-01-25T09:15:37;95815.69;;;0.79;91.01
41078;BME280;26823;42.662;23.352;2023-01-25T09:18:05;95821.44;;;0.76;91.63
41078;BME280;26823;42.662;23.352;2023-01-25T09:20:31;95807.72;;;0.79;91.43
41078;BME280;26823;42.662;23.352;2023-01-25T09:22:56;95806.13;;;0.85;90.95
41078;BME280;26823;42.662;23.352;2023-01-25T09:25:22;95819.69;;;1.19;91.13
41078;BME280;26823;42.662;23.352;2023-01-25T09:27:48;95819.72;;;1.25;90.36
41078;BME280;26823;42.662;23.352;2023-01-25T09:30:15;95821.38;;;1.26;88.80
41078;BME280;26823;42.662;23.352;2023-01-25T09:32:42;95813.81;;;1.30;89.90
41078;BME280;26823;42.662;23.352;2023-01-25T09:35:07;95795.09;;;1.17;90.46
41078;BME280;26823;42.662;23.352;2023-01-25T09:37:33;95800.59;;;0.87;92.04
41078;BME280;26823;42.662;23.352;2023-01-25T09:39:58;95794.53;;;1.00;91.60
41078;BME280;26823;42.662;23.352;2023-01-25T09:45:07;95779.97;;;0.95;91.27
41078;BME280;26823;42.662;23.352;2023-01-25T09:47:44;95792.78;;;1.13;90.71
41078;BME280;26823;42.662;23.352;2023-01-25T09:50:18;95777.16;;;0.75;92.19
41078;BME280;26823;42.662;23.352;2023-01-25T09:55:14;95767.31;;;0.76;92.27
41078;BME280;26823;42.662;23.352;2023-01-25T09:57:42;95771.88;;;1.10;91.63
41078;BME280;26823;42.662;23.352;2023-01-25T10:00:23;95767.22;;;0.91;91.99
41078;BME280;26823;42.662;23.352;2023-01-25T10:03:09;95764.22;;;1.01;91.48
41078;BME280;26823;42.662;23.352;2023-01-25T10:05:43;95763.38;;;1.35;89.91
41078;BME280;26823;42.662;23.352;2023-01-25T10:11:05;95756.97;;;1.65;87.37
41078;BME280;26823;42.662;23.352;2023-01-25T10:13:32;95747.94;;;1.17;86.76
41078;BME280;26823;42.662;23.352;2023-01-25T10:16:04;95751.72;;;1.36;87.14
41078;BME280;26823;42.662;23.352;2023-01-25T10:21:21;95728.19;;;1.11;86.41
41078;BME280;26823;42.662;23.352;2023-01-25T10:24:15;95725.84;;;1.30;86.14
41078;BME280;26823;42.662;23.352;2023-01-25T10:26:51;95730.22;;;1.44;85.83
41078;BME280;26823;42.662;23.352;2023-01-25T10:29:28;95721.59;;;1.42;85.59
41078;BME280;26823;42.662;23.352;2023-01-25T10:34:46;95719.13;;;1.41;85.21
41078;BME280;26823;42.662;23.352;2023-01-25T10:37:14;95702.25;;;1.27;83.28
41078;BME280;26823;42.662;23.352;2023-01-25T10:39:51;95713.38;;;1.37;83.70
41078;BME280;26823;42.662;23.352;2023-01-25T10:42:19;95702.59;;;1.59;81.64
41078;BME280;26823;42.662;23.352;2023-01-25T10:44:46;95694.94;;;1.42;81.70
41078;BME280;26823;42.662;23.352;2023-01-25T10:47:28;95699.91;;;1.52;81.77
41078;BME280;26823;42.662;23.352;2023-01-25T10:49:58;95696.94;;;1.95;80.61
41078;BME280;26823;42.662;23.352;2023-01-25T10:52:26;95692.66;;;2.15;79.54
41078;BME280;26823;42.662;23.352;2023-01-25T10:57:50;95676.78;;;1.79;79.95
41078;BME280;26823;42.662;23.352;2023-01-25T11:02:53;95671.59;;;1.51;81.10
41078;BME280;26823;42.662;23.352;2023-01-25T11:07:51;95637.16;;;1.01;81.01
41078;BME280;26823;42.662;23.352;2023-01-25T11:10:33;95674.19;;;1.38;82.57
41078;BME280;26823;42.662;23.352;2023-01-25T11:18:29;95651.56;;;2.02;80.59
41078;BME280;26823;42.662;23.352;2023-01-25T11:23:29;95638.84;;;1.91;78.86
41078;BME280;26823;42.662;23.352;2023-01-25T11:26:11;95665.50;;;1.77;78.23
41078;BME280;26823;42.662;23.352;2023-01-25T11:28:36;95649.13;;;1.94;78.85
41078;BME280;26823;42.662;23.352;2023-01-25T11:31:02;95666.94;;;1.80;77.67
41078;BME280;26823;42.662;23.352;2023-01-25T11:33:27;95642.91;;;1.67;78.60
41078;BME280;26823;42.662;23.352;2023-01-25T11:38:30;95639.22;;;1.68;78.04
41078;BME280;26823;42.662;23.352;2023-01-25T11:41:15;95633.28;;;1.79;78.34
41078;BME280;26823;42.662;23.352;2023-01-25T11:49:53;95620.06;;;1.37;80.22
41078;BME280;26823;42.662;23.352;2023-01-25T11:55:28;95612.97;;;1.71;79.07
41078;BME280;26823;42.662;23.352;2023-01-25T12:01:23;95604.97;;;1.91;78.35
41078;BME280;26823;42.662;23.352;2023-01-25T12:07:09;95603.94;;;1.92;78.23
41078;BME280;26823;42.662;23.352;2023-01-25T12:26:24;95586.69;;;1.68;79.48
41078;BME280;26823;42.662;23.352;2023-01-25T12:31:24;95575.81;;;1.56;79.90
41078;BME280;26823;42.662;23.352;2023-01-25T12:33:55;95581.13;;;1.63;79.67
41078;BME280;26823;42.662;23.352;2023-01-25T12:36:31;95562.06;;;1.46;80.48
41078;BME280;26823;42.662;23.352;2023-01-25T12:39:11;95574.38;;;1.67;79.66
41078;BME280;26823;42.662;23.352;2023-01-25T12:41:47;95577.66;;;1.69;79.95
41078;BME280;26823;42.662;23.352;2023-01-25T12:44:18;95571.91;;;1.92;79.31
41078;BME280;26823;42.662;23.352;2023-01-25T12:46:55;95572.56;;;1.88;78.11
41078;BME280;26823;42.662;23.352;2023-01-25T12:49:31;95560.22;;;1.67;79.13
41078;BME280;26823;42.662;23.352;2023-01-25T12:52:03;95571.28;;;1.57;79.23
41078;BME280;26823;42.662;23.352;2023-01-25T12:54:33;95559.00;;;1.62;78.84
41078;BME280;26823;42.662;23.352;2023-01-25T12:57:10;95573.75;;;1.78;78.48
41078;BME280;26823;42.662;23.352;2023-01-25T13:08:22;95555.09;;;2.05;78.34
41078;BME280;26823;42.662;23.352;2023-01-25T13:11:17;95552.22;;;1.87;77.14
41078;BME280;26823;42.662;23.352;2023-01-25T13:13:44;95545.66;;;1.89;77.32
41078;BME280;26823;42.662;23.352;2023-01-25T13:18:54;95538.09;;;1.86;78.92
41078;BME280;26823;42.662;23.352;2023-01-25T13:21:39;95543.13;;;2.28;77.79
41078;BME280;26823;42.662;23.352;2023-01-25T13:26:50;95538.66;;;1.95;77.14
41078;BME280;26823;42.662;23.352;2023-01-25T13:31:55;95532.94;;;1.85;78.02
41078;BME280;26823;42.662;23.352;2023-01-25T13:39:54;95528.63;;;1.77;77.46
41078;BME280;26823;42.662;23.352;2023-01-25T13:42:25;95534.19;;;1.75;78.33
41078;BME280;26823;42.662;23.352;2023-01-25T13:47:28;95545.03;;;1.67;78.80
41078;BME280;26823;42.662;23.352;2023-01-25T13:50:01;95557.97;;;1.70;78.70
41078;BME280;26823;42.662;23.352;2023-01-25T13:52:28;95540.13;;;1.57;79.67
41078;BME280;26823;42.662;23.352;2023-01-25T13:54:57;95551.22;;;1.68;79.13
41078;BME280;26823;42.662;23.352;2023-01-25T13:57:28;95552.44;;;1.58;79.57
41078;BME280;26823;42.662;23.352;2023-01-25T14:00:05;95547.09;;;1.85;78.41
41078;BME280;26823;42.662;23.352;2023-01-25T14:02:32;95550.41;;;1.94;77.97
41078;BME280;26823;42.662;23.352;2023-01-25T14:04:59;95549.38;;;1.82;77.89
41078;BME280;26823;42.662;23.352;2023-01-25T14:07:32;95542.94;;;1.16;79.69
41078;BME280;26823;42.662;23.352;2023-01-25T14:10:06;95548.06;;;1.24;81.28
41078;BME280;26823;42.662;23.352;2023-01-25T14:15:19;95540.31;;;1.56;80.02
41078;BME280;26823;42.662;23.352;2023-01-25T14:17:45;95546.66;;;1.48;80.72
41078;BME280;26823;42.662;23.352;2023-01-25T14:20:19;95548.53;;;1.48;80.69
41078;BME280;26823;42.662;23.352;2023-01-25T14:22:49;95549.31;;;1.48;80.84
41078;BME280;26823;42.662;23.352;2023-01-25T14:25:17;95523.91;;;1.59;79.12
41078;BME280;26823;42.662;23.352;2023-01-25T14:27:50;95541.16;;;1.56;79.35
41078;BME280;26823;42.662;23.352;2023-01-25T14:30:25;95539.88;;;1.45;80.23
41078;BME280;26823;42.662;23.352;2023-01-25T14:32:53;95541.13;;;1.36;80.47
41078;BME280;26823;42.662;23.352;2023-01-25T14:35:38;95531.25;;;1.23;80.89
41078;BME280;26823;42.662;23.352;2023-01-25T14:38:29;95536.59;;;1.30;81.52
41078;BME280;26823;42.662;23.352;2023-01-25T14:41:19;95522.63;;;1.21;81.16
41078;BME280;26823;42.662;23.352;2023-01-25T14:43:46;95529.78;;;1.14;81.51
41078;BME280;26823;42.662;23.352;2023-01-25T14:48:44;95529.22;;;1.39;81.86
41078;BME280;26823;42.662;23.352;2023-01-25T14:53:49;95516.66;;;1.06;81.34
41078;BME280;26823;42.662;23.352;2023-01-25T14:56:35;95522.16;;;0.91;83.40
41078;BME280;26823;42.662;23.352;2023-01-25T14:59:05;95523.09;;;0.70;83.30
41078;BME280;26823;42.662;23.352;2023-01-25T15:01:39;95526.50;;;0.43;84.50